Gulf - Magdalen: Past 24 Hour Conditions

 

Îles de la Madeleine Airport

02:00 PM ADT 16 September 2014
This table is a summary of hourly weather conditions for the past 24 hours.
Date / Time
(ADT)
Wind(knots) Conditions Visibility(km) Pressure(kPa) Air tempC) Relative humidity(%) Dew pointC)
16 September 2014
14:00 SW 13 gust 21 Mostly Cloudy 32 101.4 16 62 9
13:00 SW 16 Partly Cloudy 32 101.4 16 51 6
12:00 SW 10 gust 16 Partly Cloudy 32 101.4 16 54 7
11:00 W 10 Mainly Sunny 32 101.5 16 56 8
10:00 W 10 Mainly Sunny 32 101.5 15 52 6
9:00 W 8 Mainly Sunny 32 101.5 14 63 8
8:00 WSW 5 Mainly Sunny 32 101.5 12 80 9
7:00 WSW 6 Mainly Sunny 32 101.5 10 81 7
6:00 WNW 7 Partly Cloudy 24 101.5 12 70 7
5:00 SW 5 N/A N/A 101.5 10 86 8
4:00 WNW 5 N/A N/A 101.4 11 79 7
3:00 WNW 8 N/A N/A 101.5 11 73 7
2:00 W 9 N/A N/A 101.5 11 77 7
1:00 N/A N/A N/A N/A N/A N/A N/A
0:00 W 13 N/A N/A 101.5 12 72 7
15 September 2014
23:00 W 12 Mostly Cloudy 24 101.6 13 67 7
22:00 W 13 Mostly Cloudy 24 101.6 13 66 6
21:00 W 12 Mostly Cloudy 24 101.6 13 62 6
20:00 W 12 Mostly Cloudy 24 101.6 13 67 7
19:00 W 12 Mostly Cloudy 32 101.6 12 71 7
18:00 W 13 Mostly Cloudy 32 101.6 13 65 6
17:00 WNW 14 Mostly Cloudy 32 101.6 13 68 7
16:00 WNW 12 gust 19 Mostly Cloudy 32 101.6 14 70 9
15:00 WNW 15 gust 20 Mostly Cloudy 32 101.6 14 69 8
14:00 W 11 gust 17 Mostly Cloudy 32 101.6 13 79 10
 
Map of Atlantic - Newfoundland marine weather areas Southwestern Grand Banks - 44138 Banquereau - 44139 Tail of the Bank - 44140 Nickerson Bank - 44251 Northeast Burgeo Bank - 44255 Blanc-Sablon Airport Cap Whittle Chevery Natashquan Airport Heath Point Miscou Island Grand Étang Ingonish Beach North Mountain St.Paul Island J.A. Douglas McCurdy Sydney Airport Charlottetown Airport East Point North Cape Argentia Bonavista Burgeo Cape Race Corner Brook Daniel's Harbour Englee Ferolle Point La Scie Port aux Basques Rocky Harbour Sagona Island St. Anthony Airport St. John's Int'l Airport St. Lawrence Stephenville Airport Twillingate Winterland Wreckhouse Cartwright Airport Mary's Harbour Grates Cove Pool's Island Marticot Island Long Pond Îles de la Madeleine Airport
Legend: buoyBuoy land stationLand Station